createdAt,value
2023-05-16T00:01:49.950Z,8.60
2023-05-16T00:04:17.742Z,10.00
2023-05-16T00:06:44.605Z,8.90
2023-05-16T00:09:11.426Z,11.07
2023-05-16T00:11:38.261Z,9.82
2023-05-16T00:14:05.259Z,11.73
2023-05-16T00:16:32.997Z,9.35
2023-05-16T00:19:00.952Z,9.48
2023-05-16T00:21:28.162Z,9.25
2023-05-16T00:23:55.076Z,10.80
2023-05-16T00:26:22.264Z,9.45
2023-05-16T00:28:49.241Z,8.77
2023-05-16T00:31:16.136Z,11.20
2023-05-16T00:33:42.970Z,16.00
2023-05-16T00:36:09.877Z,14.40
2023-05-16T00:38:37.579Z,9.95
2023-05-16T00:41:04.483Z,10.10
2023-05-16T00:43:31.301Z,10.35
2023-05-16T00:45:58.193Z,9.50
2023-05-16T00:48:25.850Z,10.02
2023-05-16T00:50:53.821Z,10.57
2023-05-16T00:53:23.237Z,10.77
2023-05-16T00:55:51.272Z,9.88
2023-05-16T00:58:19.214Z,11.02
2023-05-16T01:00:48.722Z,15.55
2023-05-16T01:03:16.119Z,11.90
2023-05-16T01:05:43.066Z,10.90
2023-05-16T01:08:10.687Z,10.32
2023-05-16T01:10:50.053Z,12.02
2023-05-16T01:13:33.693Z,8.75
2023-05-16T01:16:17.014Z,9.77
2023-05-16T01:19:08.317Z,10.32
2023-05-16T01:22:02.708Z,12.18
2023-05-16T01:24:46.786Z,13.65
2023-05-16T01:27:14.624Z,12.38
2023-05-16T01:29:41.414Z,12.07
2023-05-16T01:32:08.234Z,13.48
2023-05-16T01:34:35.028Z,10.35
2023-05-16T01:37:17.316Z,16.20
2023-05-16T01:40:07.914Z,14.75
2023-05-16T01:42:39.540Z,13.60
2023-05-16T01:45:10.031Z,12.63
2023-05-16T01:47:43.644Z,13.85
2023-05-16T01:50:14.843Z,14.40
2023-05-16T01:52:51.129Z,17.58
2023-05-16T01:55:48.182Z,14.88
2023-05-16T01:58:17.445Z,10.70
2023-05-16T02:00:45.076Z,11.85
2023-05-16T02:03:12.238Z,10.52
2023-05-16T02:05:39.135Z,10.30
2023-05-16T02:08:06.493Z,10.88
2023-05-16T02:10:33.280Z,12.77
2023-05-16T02:13:00.051Z,13.88
2023-05-16T02:15:27.104Z,14.25
2023-05-16T02:17:54.707Z,15.75
2023-05-16T02:20:22.108Z,9.88
2023-05-16T02:22:50.005Z,12.07
2023-05-16T02:25:17.162Z,12.70
2023-05-16T02:27:44.054Z,11.38
2023-05-16T02:30:12.218Z,10.38
2023-05-16T02:32:45.077Z,13.30
2023-05-16T02:35:12.426Z,10.07
2023-05-16T02:37:40.050Z,11.98
2023-05-16T02:40:08.051Z,11.13
2023-05-16T02:42:36.799Z,16.17
2023-05-16T02:45:03.788Z,11.13
2023-05-16T02:47:30.836Z,11.15
2023-05-16T02:49:57.697Z,11.02
2023-05-16T02:52:24.549Z,13.68
2023-05-16T02:55:04.741Z,11.63
2023-05-16T02:57:38.044Z,11.68
2023-05-16T03:00:06.345Z,10.32
2023-05-16T03:02:33.463Z,11.93
2023-05-16T03:05:00.527Z,13.32
2023-05-16T03:07:27.338Z,10.85
2023-05-16T03:09:54.206Z,11.93
2023-05-16T03:12:21.035Z,11.18
2023-05-16T03:14:47.800Z,10.75
2023-05-16T03:17:14.593Z,10.35
2023-05-16T03:19:41.526Z,10.75
2023-05-16T03:22:08.352Z,8.70
2023-05-16T03:24:35.155Z,8.27
2023-05-16T03:27:03.764Z,9.00
2023-05-16T03:29:31.225Z,9.38
2023-05-16T03:31:58.104Z,9.52
2023-05-16T03:34:25.049Z,11.82
2023-05-16T03:36:52.403Z,10.35
2023-05-16T03:39:19.249Z,10.25
2023-05-16T03:41:46.103Z,11.07
2023-05-16T03:44:12.893Z,9.18
2023-05-16T03:46:39.812Z,10.23
2023-05-16T03:49:06.603Z,8.13
2023-05-16T03:51:33.385Z,8.45
2023-05-16T03:54:00.310Z,8.85
2023-05-16T03:56:27.210Z,9.75
2023-05-16T03:58:54.050Z,10.38
2023-05-16T04:01:20.824Z,12.27
2023-05-16T04:03:48.019Z,9.82
2023-05-16T04:06:14.934Z,10.13
2023-05-16T04:08:44.909Z,11.73
2023-05-16T04:11:12.168Z,10.65
2023-05-16T04:13:39.089Z,11.57
2023-05-16T04:16:06.506Z,10.13
2023-05-16T04:18:33.421Z,12.00
2023-05-16T04:21:00.241Z,9.30
2023-05-16T04:23:27.096Z,9.50
2023-05-16T04:25:54.162Z,9.98
2023-05-16T04:28:21.041Z,9.95
2023-05-16T04:30:48.662Z,8.68
2023-05-16T04:33:16.629Z,10.38
2023-05-16T04:35:43.509Z,8.88
2023-05-16T04:38:10.538Z,11.25
2023-05-16T04:40:37.694Z,10.60
2023-05-16T04:43:04.479Z,11.77
2023-05-16T04:45:31.217Z,9.13
2023-05-16T04:47:58.016Z,8.65
2023-05-16T04:50:24.915Z,8.40
2023-05-16T04:52:51.739Z,10.43
2023-05-16T04:55:18.509Z,8.77
2023-05-16T04:57:45.303Z,9.00
2023-05-16T05:00:13.420Z,8.95
2023-05-16T05:02:40.335Z,8.75
2023-05-16T05:05:08.497Z,10.05
2023-05-16T05:07:35.538Z,8.73
2023-05-16T05:10:02.372Z,12.05
2023-05-16T05:12:29.119Z,8.38
2023-05-16T05:14:56.089Z,8.45
2023-05-16T05:17:23.663Z,11.68
2023-05-16T05:19:50.744Z,8.73
2023-05-16T05:22:17.652Z,9.02
2023-05-16T05:24:44.516Z,10.30
2023-05-16T05:27:11.345Z,10.30
2023-05-16T05:29:38.231Z,10.30
2023-05-16T05:32:05.627Z,7.38
2023-05-16T05:34:33.314Z,9.43
2023-05-16T05:37:00.428Z,10.60
2023-05-16T05:39:27.412Z,8.38
2023-05-16T05:41:54.241Z,6.20
2023-05-16T05:44:21.014Z,5.55
2023-05-16T05:46:47.918Z,4.65
2023-05-16T05:49:14.983Z,4.53
2023-05-16T05:51:41.846Z,2.90
2023-05-16T05:54:08.709Z,2.15
2023-05-16T05:56:35.469Z,1.80
2023-05-16T05:59:02.295Z,1.67
2023-05-16T06:01:29.151Z,1.40
2023-05-16T06:03:55.991Z,1.30
2023-05-16T06:06:22.929Z,2.40
2023-05-16T06:08:49.746Z,1.25
2023-05-16T06:11:16.513Z,1.05
2023-05-16T06:13:43.282Z,1.15
2023-05-16T06:16:10.186Z,0.70
2023-05-16T06:18:36.997Z,2.28
2023-05-16T06:21:04.160Z,2.55
2023-05-16T06:23:31.714Z,1.08
2023-05-16T06:25:58.486Z,1.55
2023-05-16T06:28:25.470Z,0.60
2023-05-16T06:30:52.344Z,2.05
2023-05-16T06:33:19.449Z,1.65
2023-05-16T06:35:48.063Z,0.80
2023-05-16T06:38:15.899Z,0.80
2023-05-16T06:40:42.802Z,0.80
2023-05-16T06:43:09.601Z,0.88
2023-05-16T06:45:36.447Z,0.80
2023-05-16T06:48:03.604Z,0.73
2023-05-16T06:50:30.545Z,0.73
2023-05-16T06:52:57.379Z,1.45
2023-05-16T06:55:24.294Z,1.58
2023-05-16T06:57:51.303Z,1.50
2023-05-16T07:00:18.653Z,1.65
2023-05-16T07:02:45.665Z,0.80
2023-05-16T07:05:12.847Z,1.33
2023-05-16T07:07:40.063Z,1.50
2023-05-16T07:10:07.273Z,1.23
2023-05-16T07:12:35.493Z,1.88
2023-05-16T07:15:02.420Z,1.05
2023-05-16T07:17:29.248Z,0.90
2023-05-16T07:19:57.361Z,0.70
2023-05-16T07:22:24.263Z,0.68
2023-05-16T07:24:53.262Z,1.58
2023-05-16T07:27:22.748Z,0.77
2023-05-16T07:29:50.413Z,1.33
2023-05-16T07:32:17.310Z,0.68
2023-05-16T07:34:44.365Z,0.60
2023-05-16T07:37:13.060Z,0.75
2023-05-16T07:39:40.353Z,0.80
2023-05-16T07:42:08.074Z,0.80
2023-05-16T07:44:36.082Z,0.65
2023-05-16T07:47:03.547Z,1.02
2023-05-16T07:49:30.452Z,0.60
2023-05-16T07:51:57.243Z,1.13
2023-05-16T07:54:24.153Z,0.90
2023-05-16T07:56:50.970Z,0.90
2023-05-16T07:59:17.938Z,2.35
2023-05-16T08:01:44.933Z,0.93
2023-05-16T08:04:11.760Z,1.00
2023-05-16T08:06:38.605Z,0.88
2023-05-16T08:09:05.444Z,1.65
2023-05-16T08:11:32.273Z,0.70
2023-05-16T08:13:59.084Z,0.90
2023-05-16T08:16:26.175Z,1.15
2023-05-16T08:18:53.442Z,0.77
2023-05-16T08:21:20.434Z,0.70
2023-05-16T08:23:47.273Z,1.23
2023-05-16T08:26:14.132Z,0.88
2023-05-16T08:28:40.989Z,1.92
2023-05-16T08:31:07.787Z,1.15
2023-05-16T08:33:34.624Z,0.80
2023-05-16T08:36:01.513Z,0.65
2023-05-16T08:38:28.348Z,0.70
2023-05-16T08:40:55.933Z,0.70
2023-05-16T08:43:23.442Z,0.70
2023-05-16T08:45:50.378Z,0.55
2023-05-16T08:48:21.592Z,0.52
2023-05-16T08:50:48.589Z,0.20
2023-05-16T08:53:21.523Z,0.43
2023-05-16T08:55:49.500Z,0.57
2023-05-16T08:58:17.616Z,0.25
2023-05-16T09:00:45.432Z,0.20
2023-05-16T09:03:12.693Z,0.40
2023-05-16T09:05:40.815Z,1.20
2023-05-16T09:08:07.683Z,0.55
2023-05-16T09:10:34.778Z,0.30
2023-05-16T09:13:01.564Z,0.20
2023-05-16T09:15:33.285Z,0.75
2023-05-16T09:18:03.197Z,0.63
2023-05-16T09:20:31.332Z,0.80
2023-05-16T09:22:59.941Z,0.63
2023-05-16T09:25:31.363Z,0.40
2023-05-16T09:28:02.056Z,3.05
2023-05-16T09:30:32.188Z,0.80
2023-05-16T09:32:59.601Z,0.40
2023-05-16T09:37:56.983Z,1.33
2023-05-16T09:40:24.386Z,0.73
2023-05-16T09:43:05.954Z,1.67
2023-05-16T09:45:34.332Z,1.45
2023-05-16T09:48:13.284Z,1.40
2023-05-16T09:50:40.910Z,1.50
2023-05-16T09:53:07.907Z,1.38
2023-05-16T09:55:35.050Z,0.98
2023-05-16T09:58:01.931Z,2.42
2023-05-16T10:00:31.423Z,0.68
2023-05-16T10:03:01.501Z,0.30
2023-05-16T10:05:31.844Z,1.95
2023-05-16T10:07:59.287Z,1.55
2023-05-16T10:10:27.358Z,0.90
2023-05-16T10:12:58.821Z,0.40
2023-05-16T10:15:26.843Z,2.50
2023-05-16T10:17:59.901Z,1.08
2023-05-16T10:20:27.481Z,0.65
2023-05-16T10:22:56.645Z,0.95
2023-05-16T10:25:34.021Z,0.52
2023-05-16T10:28:01.424Z,0.95
2023-05-16T10:30:28.743Z,1.52
2023-05-16T10:32:56.749Z,1.35
2023-05-16T10:35:23.694Z,1.48
2023-05-16T10:37:52.922Z,2.03
2023-05-16T10:40:21.282Z,2.13
2023-05-16T10:42:57.926Z,0.98
2023-05-16T10:45:25.268Z,1.48
2023-05-16T10:47:57.018Z,1.92
2023-05-16T10:50:42.841Z,3.00
2023-05-16T10:53:23.832Z,1.92
2023-05-16T10:55:56.613Z,1.58
2023-05-16T10:58:25.201Z,1.00
2023-05-16T11:01:21.239Z,0.43
2023-05-16T11:03:57.516Z,2.53
2023-05-16T11:06:25.268Z,1.92
2023-05-16T11:09:24.697Z,2.80
2023-05-16T11:12:03.987Z,0.68
2023-05-16T11:14:38.264Z,1.35
2023-05-16T11:17:11.179Z,1.65
2023-05-16T11:19:52.575Z,0.90
2023-05-16T11:22:19.379Z,1.80
2023-05-16T11:25:02.665Z,1.23
2023-05-16T11:27:31.512Z,2.05
2023-05-16T11:30:10.472Z,0.98
2023-05-16T11:32:39.152Z,3.70
2023-05-16T11:35:08.944Z,1.25
2023-05-16T11:37:42.516Z,1.17
2023-05-16T11:40:11.541Z,2.30
2023-05-16T11:42:42.415Z,2.33
2023-05-16T11:45:11.109Z,2.22
2023-05-16T11:47:39.432Z,2.30
2023-05-16T11:50:20.497Z,2.90
2023-05-16T11:52:49.281Z,7.57
2023-05-16T11:55:28.358Z,4.07
2023-05-16T11:58:00.241Z,2.38
2023-05-16T12:00:27.881Z,3.70
2023-05-16T12:03:00.557Z,2.17
2023-05-16T12:05:29.188Z,3.60
2023-05-16T12:07:56.794Z,2.33
2023-05-16T12:10:23.573Z,2.97
2023-05-16T12:12:52.816Z,3.72
2023-05-16T12:15:20.155Z,3.42
2023-05-16T12:17:48.019Z,3.75
2023-05-16T12:20:16.621Z,2.92
2023-05-16T12:22:45.088Z,4.55
2023-05-16T12:25:43.728Z,4.53
2023-05-16T12:28:12.723Z,3.15
2023-05-16T12:30:44.560Z,2.10
2023-05-16T12:33:14.185Z,4.45
2023-05-16T12:35:43.239Z,5.28
2023-05-16T12:38:12.197Z,3.47
2023-05-16T12:40:40.557Z,5.10
2023-05-16T12:43:21.143Z,4.95
2023-05-16T12:45:56.759Z,4.03
2023-05-16T12:48:29.884Z,2.80
2023-05-16T12:50:56.659Z,2.78
2023-05-16T12:53:23.476Z,1.20
2023-05-16T12:55:50.260Z,1.67
2023-05-16T12:58:17.762Z,3.15
2023-05-16T13:00:44.733Z,2.72
2023-05-16T13:03:12.242Z,2.45
2023-05-16T13:05:39.296Z,3.88
2023-05-16T13:08:06.251Z,5.90
2023-05-16T13:10:33.051Z,3.92
2023-05-16T13:13:00.326Z,3.42
2023-05-16T13:15:27.977Z,5.25
2023-05-16T13:17:55.172Z,3.40
2023-05-16T13:20:22.006Z,3.60
2023-05-16T13:22:49.239Z,3.85
2023-05-16T13:25:16.206Z,4.82
2023-05-16T13:27:43.252Z,3.63
2023-05-16T13:30:10.432Z,3.00
2023-05-16T13:32:38.150Z,4.65
2023-05-16T13:35:06.067Z,4.18
2023-05-16T13:37:33.053Z,2.05
2023-05-16T13:39:59.907Z,3.60
2023-05-16T13:42:26.828Z,3.65
2023-05-16T13:44:53.924Z,3.42
2023-05-16T13:47:20.913Z,4.93
2023-05-16T13:49:48.606Z,2.80
2023-05-16T13:52:15.720Z,2.30
2023-05-16T13:54:42.556Z,2.53
2023-05-16T13:57:09.523Z,4.68
2023-05-16T14:02:06.415Z,2.67
2023-05-16T14:04:33.275Z,1.48
2023-05-16T14:07:00.062Z,2.47
2023-05-16T14:09:26.905Z,2.00
2023-05-16T14:11:53.710Z,1.88
2023-05-16T14:14:21.308Z,3.45
2023-05-16T14:16:48.263Z,5.00
2023-05-16T14:19:18.155Z,1.67
2023-05-16T14:21:46.154Z,1.50
2023-05-16T14:24:12.958Z,4.25
2023-05-16T14:26:39.730Z,1.88
2023-05-16T14:29:06.700Z,1.58
2023-05-16T14:31:36.272Z,3.22
2023-05-16T14:34:03.208Z,3.65
2023-05-16T14:36:30.058Z,1.63
2023-05-16T14:38:56.829Z,4.72
2023-05-16T14:41:23.824Z,3.45
2023-05-16T14:43:51.016Z,2.88
2023-05-16T14:46:18.430Z,2.05
2023-05-16T14:48:45.538Z,1.63
2023-05-16T14:51:12.545Z,3.72
2023-05-16T14:53:39.385Z,2.58
2023-05-16T14:56:06.388Z,1.67
2023-05-16T14:58:33.212Z,1.75
2023-05-16T15:01:00.013Z,1.75
2023-05-16T15:03:27.241Z,2.08
2023-05-16T15:05:54.746Z,2.42
2023-05-16T15:08:22.336Z,2.15
2023-05-16T15:10:49.196Z,2.85
2023-05-16T15:13:15.995Z,4.75
2023-05-16T15:15:42.902Z,2.75
2023-05-16T15:18:11.119Z,3.45
2023-05-16T15:20:38.098Z,2.50
2023-05-16T15:23:04.920Z,1.25
2023-05-16T15:25:31.871Z,2.22
2023-05-16T15:27:58.689Z,1.60
2023-05-16T15:30:25.612Z,2.55
2023-05-16T15:32:52.670Z,1.75
2023-05-16T15:35:19.529Z,2.47
2023-05-16T15:37:46.641Z,3.13
2023-05-16T15:40:14.293Z,1.83
2023-05-16T15:42:44.133Z,1.35
2023-05-16T15:45:12.397Z,1.83
2023-05-16T15:47:39.296Z,3.28
2023-05-16T15:50:06.597Z,4.65
2023-05-16T15:52:35.785Z,3.30
2023-05-16T15:55:03.694Z,2.47
2023-05-16T15:57:31.201Z,4.00
2023-05-16T15:59:58.291Z,1.73
2023-05-16T16:02:25.461Z,1.90
2023-05-16T16:04:52.737Z,2.97
2023-05-16T16:07:19.689Z,1.92
2023-05-16T16:09:46.573Z,4.32
2023-05-16T16:12:13.742Z,2.47
2023-05-16T16:14:41.276Z,1.67
2023-05-16T16:17:08.172Z,3.20
2023-05-16T16:19:35.230Z,2.70
2023-05-16T16:22:02.055Z,4.22
2023-05-16T16:24:28.866Z,2.53
2023-05-16T16:26:55.676Z,6.13
2023-05-16T16:29:22.546Z,2.47
2023-05-16T16:31:49.481Z,2.25
2023-05-16T16:34:16.381Z,2.33
2023-05-16T16:36:43.221Z,3.03
2023-05-16T16:39:10.382Z,2.40
2023-05-16T16:41:37.596Z,2.60
2023-05-16T16:44:04.605Z,4.53
2023-05-16T16:46:31.625Z,2.17
2023-05-16T16:48:58.480Z,3.03
2023-05-16T16:51:25.570Z,3.97
2023-05-16T16:53:52.429Z,4.97
2023-05-16T16:56:19.658Z,1.38
2023-05-16T16:58:46.493Z,2.42
2023-05-16T17:01:13.356Z,1.85
2023-05-16T17:03:40.520Z,4.82
2023-05-16T17:06:07.686Z,1.23
2023-05-16T17:08:34.545Z,1.20
2023-05-16T17:11:05.087Z,2.40
2023-05-16T17:13:33.935Z,3.40
2023-05-16T17:16:01.499Z,1.67
2023-05-16T17:18:28.312Z,2.95
2023-05-16T17:20:56.137Z,2.28
2023-05-16T17:23:23.038Z,3.00
2023-05-16T17:25:49.945Z,3.20
2023-05-16T17:28:17.034Z,1.30
2023-05-16T17:30:44.148Z,1.80
2023-05-16T17:33:11.189Z,2.05
2023-05-16T17:35:38.476Z,1.92
2023-05-16T17:38:05.311Z,1.52
2023-05-16T17:40:32.203Z,1.70
2023-05-16T17:42:59.025Z,1.75
2023-05-16T17:45:26.128Z,3.30
2023-05-16T17:47:53.183Z,2.13
2023-05-16T17:50:21.751Z,0.82
2023-05-16T17:52:48.721Z,1.67
2023-05-16T17:55:15.577Z,1.65
2023-05-16T17:57:42.548Z,1.88
2023-05-16T18:00:09.801Z,0.80
2023-05-16T18:02:39.408Z,2.20
2023-05-16T18:05:06.978Z,2.28
2023-05-16T18:07:34.112Z,1.15
2023-05-16T18:10:00.883Z,1.75
2023-05-16T18:12:27.755Z,1.67
2023-05-16T18:14:54.580Z,2.38
2023-05-16T18:17:21.511Z,0.88
2023-05-16T18:19:48.455Z,0.77
2023-05-16T18:22:15.502Z,1.05
2023-05-16T18:24:42.376Z,1.55
2023-05-16T18:27:09.623Z,3.67
2023-05-16T18:29:36.945Z,1.80
2023-05-16T18:32:04.327Z,3.47
2023-05-16T18:34:31.540Z,2.03
2023-05-16T18:36:58.419Z,1.92
2023-05-16T18:39:25.445Z,1.10
2023-05-16T18:41:52.255Z,3.40
2023-05-16T18:44:20.259Z,1.40
2023-05-16T18:46:47.247Z,1.88
2023-05-16T18:49:14.538Z,1.73
2023-05-16T18:51:41.596Z,3.60
2023-05-16T18:54:08.526Z,1.45
2023-05-16T18:56:35.389Z,2.80
2023-05-16T18:59:02.309Z,1.05
2023-05-16T19:01:29.247Z,1.92
2023-05-16T19:03:56.737Z,1.08
2023-05-16T19:06:23.758Z,0.80
2023-05-16T19:08:50.617Z,3.05
2023-05-16T19:11:17.887Z,2.67
2023-05-16T19:13:45.541Z,1.67
2023-05-16T19:16:12.828Z,0.70
2023-05-16T19:18:39.866Z,2.40
2023-05-16T19:21:13.155Z,1.33
2023-05-16T19:23:40.501Z,1.20
2023-05-16T19:26:07.313Z,3.28
2023-05-16T19:28:34.737Z,0.88
2023-05-16T19:31:01.571Z,2.80
2023-05-16T19:33:28.387Z,1.25
2023-05-16T19:35:58.454Z,1.10
2023-05-16T19:38:25.857Z,1.80
2023-05-16T19:40:53.300Z,1.52
2023-05-16T19:43:20.092Z,0.90
2023-05-16T19:45:46.952Z,1.45
2023-05-16T19:48:13.947Z,0.63
2023-05-16T19:50:42.477Z,1.00
2023-05-16T19:53:09.279Z,1.75
2023-05-16T19:55:38.082Z,2.33
2023-05-16T19:58:05.677Z,1.33
2023-05-16T20:00:32.640Z,1.67
2023-05-16T20:02:59.584Z,2.08
2023-05-16T20:05:27.146Z,0.52
2023-05-16T20:07:55.289Z,1.63
2023-05-16T20:10:22.331Z,2.15
2023-05-16T20:12:49.526Z,1.92
2023-05-16T20:15:16.576Z,2.05
2023-05-16T20:17:43.433Z,1.15
2023-05-16T20:20:10.898Z,2.20
2023-05-16T20:22:38.918Z,1.67
2023-05-16T20:25:09.747Z,1.38
2023-05-16T20:27:36.829Z,1.48
2023-05-16T20:30:05.104Z,1.27
2023-05-16T20:32:32.303Z,1.67
2023-05-16T20:34:59.165Z,1.38
2023-05-16T20:37:26.739Z,1.55
2023-05-16T20:39:54.423Z,2.80
2023-05-16T20:42:21.643Z,2.42
2023-05-16T20:44:48.545Z,2.83
2023-05-16T20:47:17.126Z,1.00
2023-05-16T20:49:44.079Z,1.00
2023-05-16T20:52:11.141Z,2.17
2023-05-16T20:54:38.056Z,2.85
2023-05-16T20:57:05.400Z,2.40
2023-05-16T20:59:32.374Z,0.73
2023-05-16T21:01:59.468Z,1.73
2023-05-16T21:04:26.482Z,2.38
2023-05-16T21:06:53.397Z,2.10
2023-05-16T21:09:20.197Z,1.35
2023-05-16T21:11:47.002Z,1.85
2023-05-16T21:14:14.690Z,2.83
2023-05-16T21:16:41.905Z,1.23
2023-05-16T21:19:09.048Z,6.97
2023-05-16T21:21:35.996Z,1.50
2023-05-16T21:24:03.699Z,2.45
2023-05-16T21:26:30.592Z,3.28
2023-05-16T21:28:57.477Z,1.77
2023-05-16T21:31:24.336Z,1.40
2023-05-16T21:33:52.173Z,2.53
2023-05-16T21:36:20.238Z,1.63
2023-05-16T21:38:47.296Z,1.08
2023-05-16T21:41:14.577Z,1.75
2023-05-16T21:43:41.665Z,1.77
2023-05-16T21:46:08.458Z,4.13
2023-05-16T21:48:35.750Z,1.60
2023-05-16T21:51:03.487Z,2.65
2023-05-16T21:53:30.389Z,0.63
2023-05-16T21:55:57.196Z,1.13
2023-05-16T21:58:25.219Z,2.75
2023-05-16T22:00:52.057Z,0.93
2023-05-16T22:03:20.948Z,0.80
2023-05-16T22:05:48.367Z,2.10
2023-05-16T22:08:15.345Z,2.08
2023-05-16T22:10:42.348Z,0.75
2023-05-16T22:13:09.216Z,1.02
2023-05-16T22:15:36.133Z,1.25
2023-05-16T22:18:03.442Z,0.93
2023-05-16T22:20:30.355Z,2.35
2023-05-16T22:22:57.466Z,0.52
2023-05-16T22:25:24.376Z,3.08
2023-05-16T22:27:51.196Z,1.42
2023-05-16T22:30:18.460Z,1.45
2023-05-16T22:32:46.786Z,1.40
2023-05-16T22:35:14.091Z,1.73
2023-05-16T22:37:40.895Z,0.75
2023-05-16T22:40:08.645Z,0.50
2023-05-16T22:42:35.504Z,1.77
2023-05-16T22:45:03.820Z,1.42
2023-05-16T22:47:30.779Z,1.73
2023-05-16T22:49:57.670Z,1.60
2023-05-16T22:52:24.519Z,3.58
2023-05-16T22:54:51.303Z,1.25
2023-05-16T22:57:18.237Z,2.30
2023-05-16T22:59:45.074Z,3.97
2023-05-16T23:02:11.879Z,1.77
2023-05-16T23:04:38.774Z,1.92
2023-05-16T23:07:05.832Z,1.90
2023-05-16T23:09:32.677Z,3.70
2023-05-16T23:11:59.507Z,3.33
2023-05-16T23:14:26.340Z,2.25
2023-05-16T23:16:53.228Z,0.82
2023-05-16T23:19:20.254Z,2.10
2023-05-16T23:21:47.229Z,2.25
2023-05-16T23:24:14.057Z,1.80
2023-05-16T23:26:40.848Z,2.05
2023-05-16T23:29:08.041Z,1.45
2023-05-16T23:31:34.913Z,2.10
2023-05-16T23:34:02.115Z,1.23
2023-05-16T23:36:29.029Z,1.35
2023-05-16T23:38:55.849Z,1.15
2023-05-16T23:41:22.689Z,2.05
2023-05-16T23:43:49.509Z,2.42
2023-05-16T23:46:16.309Z,5.03
2023-05-16T23:48:43.317Z,1.92
2023-05-16T23:51:10.168Z,2.38
2023-05-16T23:53:37.157Z,3.28
2023-05-16T23:56:04.103Z,1.27
2023-05-16T23:58:31.011Z,3.30
